sensor_id;sensor_type;location;lat;lon;timestamp;P1;durP1;ratioP1;P2;durP2;ratioP2
64598;SDS011;51008;51.504;11.548;2023-08-30T00:00:42;4.22;;;2.20;;
64598;SDS011;51008;51.504;11.548;2023-08-30T00:05:43;9.35;;;2.40;;
64598;SDS011;51008;51.504;11.548;2023-08-30T00:10:48;10.30;;;2.25;;
64598;SDS011;51008;51.504;11.548;2023-08-30T00:15:49;4.05;;;2.08;;
64598;SDS011;51008;51.504;11.548;2023-08-30T00:20:50;6.45;;;2.08;;
64598;SDS011;51008;51.504;11.548;2023-08-30T00:25:51;3.92;;;1.77;;
64598;SDS011;51008;51.504;11.548;2023-08-30T00:30:53;3.63;;;1.88;;
64598;SDS011;51008;51.504;11.548;2023-08-30T00:35:55;4.85;;;2.47;;
64598;SDS011;51008;51.504;11.548;2023-08-30T00:40:57;4.63;;;2.58;;
64598;SDS011;51008;51.504;11.548;2023-08-30T00:45:59;5.05;;;2.38;;
64598;SDS011;51008;51.504;11.548;2023-08-30T00:51:00;10.98;;;2.50;;
64598;SDS011;51008;51.504;11.548;2023-08-30T00:56:01;11.63;;;2.60;;
64598;SDS011;51008;51.504;11.548;2023-08-30T01:01:03;3.08;;;2.15;;
64598;SDS011;51008;51.504;11.548;2023-08-30T01:06:04;3.72;;;2.40;;
64598;SDS011;51008;51.504;11.548;2023-08-30T01:11:11;6.32;;;2.08;;
64598;SDS011;51008;51.504;11.548;2023-08-30T01:16:21;10.57;;;2.83;;
64598;SDS011;51008;51.504;11.548;2023-08-30T01:27:11;4.82;;;2.20;;
64598;SDS011;51008;51.504;11.548;2023-08-30T01:32:13;4.25;;;2.85;;
64598;SDS011;51008;51.504;11.548;2023-08-30T01:37:15;7.05;;;2.58;;
64598;SDS011;51008;51.504;11.548;2023-08-30T01:42:17;3.47;;;2.45;;
64598;SDS011;51008;51.504;11.548;2023-08-30T01:47:18;16.30;;;3.25;;
64598;SDS011;51008;51.504;11.548;2023-08-30T01:52:20;5.55;;;2.80;;
64598;SDS011;51008;51.504;11.548;2023-08-30T01:57:21;7.53;;;2.72;;
64598;SDS011;51008;51.504;11.548;2023-08-30T02:02:22;4.13;;;2.88;;
64598;SDS011;51008;51.504;11.548;2023-08-30T02:07:25;6.10;;;3.22;;
64598;SDS011;51008;51.504;11.548;2023-08-30T02:12:46;5.78;;;3.10;;
64598;SDS011;51008;51.504;11.548;2023-08-30T02:17:48;4.82;;;3.22;;
64598;SDS011;51008;51.504;11.548;2023-08-30T02:22:50;5.50;;;3.38;;
64598;SDS011;51008;51.504;11.548;2023-08-30T02:27:51;10.52;;;3.55;;
64598;SDS011;51008;51.504;11.548;2023-08-30T02:32:52;6.78;;;3.05;;
64598;SDS011;51008;51.504;11.548;2023-08-30T02:37:53;9.77;;;5.85;;
64598;SDS011;51008;51.504;11.548;2023-08-30T02:42:57;10.18;;;5.45;;
64598;SDS011;51008;51.504;11.548;2023-08-30T02:47:57;10.35;;;5.20;;
64598;SDS011;51008;51.504;11.548;2023-08-30T02:52:58;8.52;;;5.10;;
64598;SDS011;51008;51.504;11.548;2023-08-30T02:57:59;10.60;;;5.50;;
64598;SDS011;51008;51.504;11.548;2023-08-30T03:03:02;12.50;;;6.88;;
64598;SDS011;51008;51.504;11.548;2023-08-30T03:08:03;9.95;;;6.45;;
64598;SDS011;51008;51.504;11.548;2023-08-30T03:13:04;11.27;;;6.88;;
64598;SDS011;51008;51.504;11.548;2023-08-30T03:18:06;10.88;;;6.97;;
64598;SDS011;51008;51.504;11.548;2023-08-30T03:23:08;12.85;;;6.78;;
64598;SDS011;51008;51.504;11.548;2023-08-30T03:28:09;20.35;;;7.88;;
64598;SDS011;51008;51.504;11.548;2023-08-30T03:33:10;12.13;;;7.60;;
64598;SDS011;51008;51.504;11.548;2023-08-30T03:38:11;15.88;;;8.80;;
64598;SDS011;51008;51.504;11.548;2023-08-30T03:43:12;14.68;;;8.32;;
64598;SDS011;51008;51.504;11.548;2023-08-30T03:48:13;14.60;;;8.77;;
64598;SDS011;51008;51.504;11.548;2023-08-30T03:53:14;13.50;;;7.95;;
64598;SDS011;51008;51.504;11.548;2023-08-30T03:58:16;13.75;;;8.80;;
64598;SDS011;51008;51.504;11.548;2023-08-30T04:03:18;14.35;;;9.48;;
64598;SDS011;51008;51.504;11.548;2023-08-30T04:08:20;14.55;;;9.43;;
64598;SDS011;51008;51.504;11.548;2023-08-30T04:13:21;11.82;;;8.57;;
64598;SDS011;51008;51.504;11.548;2023-08-30T04:18:22;15.43;;;9.43;;
64598;SDS011;51008;51.504;11.548;2023-08-30T04:23:26;17.63;;;10.25;;
64598;SDS011;51008;51.504;11.548;2023-08-30T04:28:27;16.77;;;10.75;;
64598;SDS011;51008;51.504;11.548;2023-08-30T04:33:29;17.25;;;9.57;;
64598;SDS011;51008;51.504;11.548;2023-08-30T04:38:29;16.38;;;9.13;;
64598;SDS011;51008;51.504;11.548;2023-08-30T04:43:32;15.15;;;9.20;;
64598;SDS011;51008;51.504;11.548;2023-08-30T04:48:33;13.55;;;9.30;;
64598;SDS011;51008;51.504;11.548;2023-08-30T04:53:34;14.27;;;8.90;;
64598;SDS011;51008;51.504;11.548;2023-08-30T04:58:35;14.65;;;9.60;;
64598;SDS011;51008;51.504;11.548;2023-08-30T05:03:36;14.10;;;9.38;;
64598;SDS011;51008;51.504;11.548;2023-08-30T05:08:38;13.80;;;9.57;;
64598;SDS011;51008;51.504;11.548;2023-08-30T05:13:39;15.05;;;9.00;;
64598;SDS011;51008;51.504;11.548;2023-08-30T05:18:40;18.10;;;9.43;;
64598;SDS011;51008;51.504;11.548;2023-08-30T05:23:41;15.38;;;9.82;;
64598;SDS011;51008;51.504;11.548;2023-08-30T05:28:42;16.25;;;10.20;;
64598;SDS011;51008;51.504;11.548;2023-08-30T05:33:43;16.80;;;10.98;;
64598;SDS011;51008;51.504;11.548;2023-08-30T05:39:07;18.58;;;10.18;;
64598;SDS011;51008;51.504;11.548;2023-08-30T05:44:17;18.35;;;9.70;;
64598;SDS011;51008;51.504;11.548;2023-08-30T05:49:18;14.30;;;8.57;;
64598;SDS011;51008;51.504;11.548;2023-08-30T05:54:19;10.02;;;7.28;;
64598;SDS011;51008;51.504;11.548;2023-08-30T05:59:20;8.57;;;6.03;;
64598;SDS011;51008;51.504;11.548;2023-08-30T06:04:21;8.57;;;5.68;;
64598;SDS011;51008;51.504;11.548;2023-08-30T06:09:22;8.10;;;5.05;;
64598;SDS011;51008;51.504;11.548;2023-08-30T06:14:23;7.13;;;4.82;;
64598;SDS011;51008;51.504;11.548;2023-08-30T06:19:24;10.80;;;5.05;;
64598;SDS011;51008;51.504;11.548;2023-08-30T06:24:25;9.32;;;5.82;;
64598;SDS011;51008;51.504;11.548;2023-08-30T06:29:26;12.05;;;5.82;;
64598;SDS011;51008;51.504;11.548;2023-08-30T06:34:27;11.52;;;5.53;;
64598;SDS011;51008;51.504;11.548;2023-08-30T06:39:35;13.20;;;6.20;;
64598;SDS011;51008;51.504;11.548;2023-08-30T06:44:36;11.48;;;6.15;;
64598;SDS011;51008;51.504;11.548;2023-08-30T06:49:37;11.75;;;6.32;;
64598;SDS011;51008;51.504;11.548;2023-08-30T06:54:38;17.08;;;8.48;;
64598;SDS011;51008;51.504;11.548;2023-08-30T06:59:39;32.58;;;13.73;;
64598;SDS011;51008;51.504;11.548;2023-08-30T07:04:40;22.15;;;12.25;;
64598;SDS011;51008;51.504;11.548;2023-08-30T07:09:41;23.33;;;11.82;;
64598;SDS011;51008;51.504;11.548;2023-08-30T07:14:42;7.63;;;5.40;;
64598;SDS011;51008;51.504;11.548;2023-08-30T07:19:43;11.60;;;6.93;;
64598;SDS011;51008;51.504;11.548;2023-08-30T07:24:44;10.00;;;5.47;;
64598;SDS011;51008;51.504;11.548;2023-08-30T07:29:45;7.97;;;5.55;;
64598;SDS011;51008;51.504;11.548;2023-08-30T07:34:46;7.72;;;5.30;;
64598;SDS011;51008;51.504;11.548;2023-08-30T07:39:47;8.32;;;5.70;;
64598;SDS011;51008;51.504;11.548;2023-08-30T07:44:49;21.45;;;8.95;;
64598;SDS011;51008;51.504;11.548;2023-08-30T07:49:50;7.65;;;5.70;;
64598;SDS011;51008;51.504;11.548;2023-08-30T07:54:51;9.55;;;6.32;;
64598;SDS011;51008;51.504;11.548;2023-08-30T07:59:52;7.20;;;5.32;;
64598;SDS011;51008;51.504;11.548;2023-08-30T08:04:53;14.38;;;5.70;;
64598;SDS011;51008;51.504;11.548;2023-08-30T08:09:54;10.25;;;5.32;;
64598;SDS011;51008;51.504;11.548;2023-08-30T08:14:55;8.60;;;4.45;;
64598;SDS011;51008;51.504;11.548;2023-08-30T08:19:56;6.03;;;3.70;;
64598;SDS011;51008;51.504;11.548;2023-08-30T08:24:57;6.13;;;4.00;;
64598;SDS011;51008;51.504;11.548;2023-08-30T08:29:58;6.32;;;3.22;;
64598;SDS011;51008;51.504;11.548;2023-08-30T08:34:59;8.77;;;3.70;;
64598;SDS011;51008;51.504;11.548;2023-08-30T08:40:00;6.22;;;3.40;;
64598;SDS011;51008;51.504;11.548;2023-08-30T08:45:04;7.47;;;3.33;;
64598;SDS011;51008;51.504;11.548;2023-08-30T08:50:06;5.43;;;3.22;;
64598;SDS011;51008;51.504;11.548;2023-08-30T08:55:07;8.10;;;4.18;;
64598;SDS011;51008;51.504;11.548;2023-08-30T09:00:09;8.30;;;5.18;;
64598;SDS011;51008;51.504;11.548;2023-08-30T09:05:10;8.63;;;4.30;;
64598;SDS011;51008;51.504;11.548;2023-08-30T09:10:11;10.13;;;4.90;;
64598;SDS011;51008;51.504;11.548;2023-08-30T09:15:12;8.52;;;4.07;;
64598;SDS011;51008;51.504;11.548;2023-08-30T09:20:14;7.70;;;4.03;;
64598;SDS011;51008;51.504;11.548;2023-08-30T09:25:22;6.32;;;3.97;;
64598;SDS011;51008;51.504;11.548;2023-08-30T09:30:24;7.95;;;3.70;;
64598;SDS011;51008;51.504;11.548;2023-08-30T09:35:25;6.20;;;3.05;;
64598;SDS011;51008;51.504;11.548;2023-08-30T09:40:26;5.13;;;2.90;;
64598;SDS011;51008;51.504;11.548;2023-08-30T09:45:27;9.45;;;3.67;;
64598;SDS011;51008;51.504;11.548;2023-08-30T09:50:34;9.20;;;3.30;;
64598;SDS011;51008;51.504;11.548;2023-08-30T09:55:37;5.72;;;2.78;;
64598;SDS011;51008;51.504;11.548;2023-08-30T10:00:40;5.57;;;2.58;;
64598;SDS011;51008;51.504;11.548;2023-08-30T10:05:44;4.93;;;2.67;;
64598;SDS011;51008;51.504;11.548;2023-08-30T10:10:46;5.93;;;2.50;;
64598;SDS011;51008;51.504;11.548;2023-08-30T10:15:48;6.28;;;2.20;;
64598;SDS011;51008;51.504;11.548;2023-08-30T10:20:54;4.93;;;1.90;;
64598;SDS011;51008;51.504;11.548;2023-08-30T10:25:56;4.55;;;2.00;;
64598;SDS011;51008;51.504;11.548;2023-08-30T10:30:57;4.25;;;2.03;;
64598;SDS011;51008;51.504;11.548;2023-08-30T10:36:05;4.72;;;1.70;;
64598;SDS011;51008;51.504;11.548;2023-08-30T10:41:06;5.40;;;2.03;;
64598;SDS011;51008;51.504;11.548;2023-08-30T10:46:07;4.38;;;1.92;;
64598;SDS011;51008;51.504;11.548;2023-08-30T10:51:21;2.78;;;1.70;;
64598;SDS011;51008;51.504;11.548;2023-08-30T10:56:35;8.60;;;2.58;;
64598;SDS011;51008;51.504;11.548;2023-08-30T11:01:36;7.15;;;2.63;;
64598;SDS011;51008;51.504;11.548;2023-08-30T11:06:40;6.43;;;2.30;;
64598;SDS011;51008;51.504;11.548;2023-08-30T11:11:43;5.32;;;2.40;;
64598;SDS011;51008;51.504;11.548;2023-08-30T11:16:45;3.97;;;2.57;;
64598;SDS011;51008;51.504;11.548;2023-08-30T11:21:46;4.53;;;2.70;;
64598;SDS011;51008;51.504;11.548;2023-08-30T11:26:52;4.65;;;2.45;;
64598;SDS011;51008;51.504;11.548;2023-08-30T11:31:53;4.65;;;2.40;;
64598;SDS011;51008;51.504;11.548;2023-08-30T11:36:54;4.90;;;2.25;;
64598;SDS011;51008;51.504;11.548;2023-08-30T11:41:56;7.97;;;2.28;;
64598;SDS011;51008;51.504;11.548;2023-08-30T11:46:58;3.33;;;2.10;;
64598;SDS011;51008;51.504;11.548;2023-08-30T11:51:59;3.60;;;1.90;;
64598;SDS011;51008;51.504;11.548;2023-08-30T11:57:00;10.55;;;1.55;;
64598;SDS011;51008;51.504;11.548;2023-08-30T12:02:02;3.28;;;1.88;;
64598;SDS011;51008;51.504;11.548;2023-08-30T12:07:04;3.95;;;1.80;;
64598;SDS011;51008;51.504;11.548;2023-08-30T12:12:10;4.45;;;2.08;;
64598;SDS011;51008;51.504;11.548;2023-08-30T12:17:12;4.38;;;2.10;;
64598;SDS011;51008;51.504;11.548;2023-08-30T12:22:13;6.75;;;2.47;;
64598;SDS011;51008;51.504;11.548;2023-08-30T12:27:14;4.22;;;2.42;;
64598;SDS011;51008;51.504;11.548;2023-08-30T12:32:15;5.60;;;2.70;;
64598;SDS011;51008;51.504;11.548;2023-08-30T12:37:16;6.82;;;2.70;;
64598;SDS011;51008;51.504;11.548;2023-08-30T12:42:17;2.92;;;2.15;;
64598;SDS011;51008;51.504;11.548;2023-08-30T12:47:18;7.20;;;2.70;;
64598;SDS011;51008;51.504;11.548;2023-08-30T12:52:19;3.45;;;2.38;;
64598;SDS011;51008;51.504;11.548;2023-08-30T12:57:20;6.90;;;2.80;;
64598;SDS011;51008;51.504;11.548;2023-08-30T13:02:21;7.50;;;3.15;;
64598;SDS011;51008;51.504;11.548;2023-08-30T13:07:22;5.50;;;3.30;;
64598;SDS011;51008;51.504;11.548;2023-08-30T13:12:23;5.25;;;2.85;;
64598;SDS011;51008;51.504;11.548;2023-08-30T13:17:24;7.90;;;3.45;;
64598;SDS011;51008;51.504;11.548;2023-08-30T13:22:25;6.88;;;3.40;;
64598;SDS011;51008;51.504;11.548;2023-08-30T13:27:26;4.95;;;3.55;;
64598;SDS011;51008;51.504;11.548;2023-08-30T13:32:27;5.38;;;3.55;;
64598;SDS011;51008;51.504;11.548;2023-08-30T13:37:28;7.93;;;3.70;;
64598;SDS011;51008;51.504;11.548;2023-08-30T13:42:29;6.00;;;3.50;;
64598;SDS011;51008;51.504;11.548;2023-08-30T13:47:30;7.25;;;3.80;;
64598;SDS011;51008;51.504;11.548;2023-08-30T13:52:31;8.00;;;3.38;;
64598;SDS011;51008;51.504;11.548;2023-08-30T13:57:32;7.85;;;3.83;;
64598;SDS011;51008;51.504;11.548;2023-08-30T14:02:33;5.78;;;3.50;;
64598;SDS011;51008;51.504;11.548;2023-08-30T14:07:34;9.68;;;4.20;;
64598;SDS011;51008;51.504;11.548;2023-08-30T14:12:35;9.40;;;3.60;;
64598;SDS011;51008;51.504;11.548;2023-08-30T14:17:36;8.77;;;3.88;;
64598;SDS011;51008;51.504;11.548;2023-08-30T14:22:36;5.75;;;3.33;;
64598;SDS011;51008;51.504;11.548;2023-08-30T14:27:38;5.10;;;3.20;;
64598;SDS011;51008;51.504;11.548;2023-08-30T14:32:39;6.40;;;3.30;;
64598;SDS011;51008;51.504;11.548;2023-08-30T14:37:40;8.02;;;3.35;;
64598;SDS011;51008;51.504;11.548;2023-08-30T14:42:41;7.53;;;3.50;;
64598;SDS011;51008;51.504;11.548;2023-08-30T14:47:42;6.38;;;3.47;;
64598;SDS011;51008;51.504;11.548;2023-08-30T14:52:43;7.65;;;3.92;;
64598;SDS011;51008;51.504;11.548;2023-08-30T14:57:44;4.75;;;3.20;;
64598;SDS011;51008;51.504;11.548;2023-08-30T15:02:45;4.70;;;2.90;;
64598;SDS011;51008;51.504;11.548;2023-08-30T15:07:46;8.82;;;3.40;;
64598;SDS011;51008;51.504;11.548;2023-08-30T15:12:47;5.22;;;3.13;;
64598;SDS011;51008;51.504;11.548;2023-08-30T15:17:49;5.07;;;3.08;;
64598;SDS011;51008;51.504;11.548;2023-08-30T15:22:50;8.30;;;3.53;;
64598;SDS011;51008;51.504;11.548;2023-08-30T15:27:52;8.73;;;3.20;;
64598;SDS011;51008;51.504;11.548;2023-08-30T15:32:53;6.82;;;3.58;;
64598;SDS011;51008;51.504;11.548;2023-08-30T15:37:54;5.35;;;3.22;;
64598;SDS011;51008;51.504;11.548;2023-08-30T15:42:55;10.35;;;3.72;;
64598;SDS011;51008;51.504;11.548;2023-08-30T15:47:56;6.18;;;3.60;;
64598;SDS011;51008;51.504;11.548;2023-08-30T15:52:57;5.32;;;3.25;;
64598;SDS011;51008;51.504;11.548;2023-08-30T15:57:58;6.85;;;3.20;;
64598;SDS011;51008;51.504;11.548;2023-08-30T16:02:58;5.88;;;3.20;;
64598;SDS011;51008;51.504;11.548;2023-08-30T16:07:59;5.45;;;3.47;;
64598;SDS011;51008;51.504;11.548;2023-08-30T16:13:00;16.08;;;7.75;;
64598;SDS011;51008;51.504;11.548;2023-08-30T16:18:02;9.55;;;6.20;;
64598;SDS011;51008;51.504;11.548;2023-08-30T16:23:03;7.35;;;3.50;;
64598;SDS011;51008;51.504;11.548;2023-08-30T16:28:05;4.38;;;2.92;;
64598;SDS011;51008;51.504;11.548;2023-08-30T16:33:06;5.28;;;3.38;;
64598;SDS011;51008;51.504;11.548;2023-08-30T16:38:07;6.07;;;3.25;;
64598;SDS011;51008;51.504;11.548;2023-08-30T16:43:08;6.35;;;3.60;;
64598;SDS011;51008;51.504;11.548;2023-08-30T16:48:09;5.88;;;3.45;;
64598;SDS011;51008;51.504;11.548;2023-08-30T16:53:10;5.45;;;2.95;;
64598;SDS011;51008;51.504;11.548;2023-08-30T16:58:12;6.63;;;3.53;;
64598;SDS011;51008;51.504;11.548;2023-08-30T17:03:13;6.32;;;3.55;;
64598;SDS011;51008;51.504;11.548;2023-08-30T17:08:15;5.28;;;3.33;;
64598;SDS011;51008;51.504;11.548;2023-08-30T17:13:16;7.95;;;4.28;;
64598;SDS011;51008;51.504;11.548;2023-08-30T17:18:17;8.02;;;4.65;;
64598;SDS011;51008;51.504;11.548;2023-08-30T17:23:19;9.82;;;4.60;;
64598;SDS011;51008;51.504;11.548;2023-08-30T17:28:21;8.63;;;3.58;;
64598;SDS011;51008;51.504;11.548;2023-08-30T17:33:22;7.88;;;3.70;;
64598;SDS011;51008;51.504;11.548;2023-08-30T17:38:23;8.52;;;3.70;;
64598;SDS011;51008;51.504;11.548;2023-08-30T17:43:25;7.90;;;3.45;;
64598;SDS011;51008;51.504;11.548;2023-08-30T17:48:26;12.30;;;4.97;;
64598;SDS011;51008;51.504;11.548;2023-08-30T17:53:27;9.05;;;4.57;;
64598;SDS011;51008;51.504;11.548;2023-08-30T17:58:28;16.35;;;4.70;;
64598;SDS011;51008;51.504;11.548;2023-08-30T18:03:29;11.30;;;5.28;;
64598;SDS011;51008;51.504;11.548;2023-08-30T18:08:30;10.10;;;5.70;;
64598;SDS011;51008;51.504;11.548;2023-08-30T18:13:31;9.27;;;5.50;;
64598;SDS011;51008;51.504;11.548;2023-08-30T18:18:32;10.40;;;6.15;;
64598;SDS011;51008;51.504;11.548;2023-08-30T18:23:33;12.60;;;6.32;;
64598;SDS011;51008;51.504;11.548;2023-08-30T18:28:34;12.32;;;6.70;;
64598;SDS011;51008;51.504;11.548;2023-08-30T18:33:35;12.82;;;7.30;;
64598;SDS011;51008;51.504;11.548;2023-08-30T18:38:36;13.45;;;7.30;;
64598;SDS011;51008;51.504;11.548;2023-08-30T18:43:37;13.10;;;6.72;;
64598;SDS011;51008;51.504;11.548;2023-08-30T18:48:38;10.50;;;6.85;;
64598;SDS011;51008;51.504;11.548;2023-08-30T18:53:40;11.68;;;7.18;;
64598;SDS011;51008;51.504;11.548;2023-08-30T18:58:41;9.20;;;6.28;;
64598;SDS011;51008;51.504;11.548;2023-08-30T19:03:42;10.70;;;6.93;;
64598;SDS011;51008;51.504;11.548;2023-08-30T19:08:44;14.57;;;6.78;;
64598;SDS011;51008;51.504;11.548;2023-08-30T19:13:46;10.43;;;6.78;;
64598;SDS011;51008;51.504;11.548;2023-08-30T19:18:48;8.63;;;6.00;;
64598;SDS011;51008;51.504;11.548;2023-08-30T19:23:49;8.38;;;5.90;;
64598;SDS011;51008;51.504;11.548;2023-08-30T19:28:50;10.25;;;6.18;;
64598;SDS011;51008;51.504;11.548;2023-08-30T19:33:51;10.45;;;6.03;;
64598;SDS011;51008;51.504;11.548;2023-08-30T19:38:52;10.93;;;7.05;;
64598;SDS011;51008;51.504;11.548;2023-08-30T19:43:54;9.50;;;5.90;;
64598;SDS011;51008;51.504;11.548;2023-08-30T19:48:55;9.95;;;6.13;;
64598;SDS011;51008;51.504;11.548;2023-08-30T19:53:56;10.15;;;6.15;;
64598;SDS011;51008;51.504;11.548;2023-08-30T19:58:57;8.52;;;5.75;;
64598;SDS011;51008;51.504;11.548;2023-08-30T20:03:58;13.48;;;6.20;;
64598;SDS011;51008;51.504;11.548;2023-08-30T20:08:59;12.85;;;7.30;;
64598;SDS011;51008;51.504;11.548;2023-08-30T20:14:00;12.88;;;8.00;;
64598;SDS011;51008;51.504;11.548;2023-08-30T20:19:01;11.05;;;7.38;;
64598;SDS011;51008;51.504;11.548;2023-08-30T20:24:22;13.52;;;7.65;;
64598;SDS011;51008;51.504;11.548;2023-08-30T20:29:23;10.45;;;7.43;;
64598;SDS011;51008;51.504;11.548;2023-08-30T20:34:24;12.93;;;8.60;;
64598;SDS011;51008;51.504;11.548;2023-08-30T20:39:25;14.43;;;8.63;;
64598;SDS011;51008;51.504;11.548;2023-08-30T20:44:26;14.43;;;8.57;;
64598;SDS011;51008;51.504;11.548;2023-08-30T20:49:27;13.35;;;8.02;;
64598;SDS011;51008;51.504;11.548;2023-08-30T20:54:28;11.57;;;7.10;;
64598;SDS011;51008;51.504;11.548;2023-08-30T20:59:29;6.57;;;4.50;;
64598;SDS011;51008;51.504;11.548;2023-08-30T21:04:30;13.68;;;4.25;;
64598;SDS011;51008;51.504;11.548;2023-08-30T21:09:31;5.30;;;2.33;;
64598;SDS011;51008;51.504;11.548;2023-08-30T21:14:32;4.65;;;2.00;;
64598;SDS011;51008;51.504;11.548;2023-08-30T21:19:33;4.65;;;1.90;;
64598;SDS011;51008;51.504;11.548;2023-08-30T21:24:34;5.13;;;2.00;;
64598;SDS011;51008;51.504;11.548;2023-08-30T21:29:36;4.35;;;2.03;;
64598;SDS011;51008;51.504;11.548;2023-08-30T21:34:37;4.00;;;2.08;;
64598;SDS011;51008;51.504;11.548;2023-08-30T21:39:38;3.88;;;2.20;;
64598;SDS011;51008;51.504;11.548;2023-08-30T21:44:39;4.55;;;2.42;;
64598;SDS011;51008;51.504;11.548;2023-08-30T21:49:41;4.63;;;2.90;;
64598;SDS011;51008;51.504;11.548;2023-08-30T21:54:42;5.47;;;3.40;;
64598;SDS011;51008;51.504;11.548;2023-08-30T21:59:43;5.60;;;2.92;;
64598;SDS011;51008;51.504;11.548;2023-08-30T22:04:44;9.15;;;4.60;;
64598;SDS011;51008;51.504;11.548;2023-08-30T22:09:45;14.00;;;5.85;;
64598;SDS011;51008;51.504;11.548;2023-08-30T22:14:45;11.25;;;5.40;;
64598;SDS011;51008;51.504;11.548;2023-08-30T22:19:46;9.80;;;4.97;;
64598;SDS011;51008;51.504;11.548;2023-08-30T22:24:47;6.45;;;4.10;;
64598;SDS011;51008;51.504;11.548;2023-08-30T22:29:48;6.55;;;4.10;;
64598;SDS011;51008;51.504;11.548;2023-08-30T22:34:49;8.15;;;3.33;;
64598;SDS011;51008;51.504;11.548;2023-08-30T22:39:50;7.63;;;3.28;;
64598;SDS011;51008;51.504;11.548;2023-08-30T22:44:52;5.03;;;3.08;;
64598;SDS011;51008;51.504;11.548;2023-08-30T22:49:53;5.90;;;3.40;;
64598;SDS011;51008;51.504;11.548;2023-08-30T22:54:54;6.03;;;3.75;;
64598;SDS011;51008;51.504;11.548;2023-08-30T22:59:55;8.73;;;3.70;;
64598;SDS011;51008;51.504;11.548;2023-08-30T23:04:56;9.18;;;3.75;;
64598;SDS011;51008;51.504;11.548;2023-08-30T23:09:57;6.10;;;2.97;;
64598;SDS011;51008;51.504;11.548;2023-08-30T23:14:59;8.23;;;3.33;;
64598;SDS011;51008;51.504;11.548;2023-08-30T23:20:00;6.13;;;3.40;;
64598;SDS011;51008;51.504;11.548;2023-08-30T23:25:01;5.80;;;3.17;;
64598;SDS011;51008;51.504;11.548;2023-08-30T23:30:02;4.72;;;2.45;;
64598;SDS011;51008;51.504;11.548;2023-08-30T23:35:04;5.32;;;2.58;;
64598;SDS011;51008;51.504;11.548;2023-08-30T23:40:06;6.50;;;2.28;;
64598;SDS011;51008;51.504;11.548;2023-08-30T23:45:08;6.05;;;2.00;;
64598;SDS011;51008;51.504;11.548;2023-08-30T23:50:09;3.67;;;1.90;;
64598;SDS011;51008;51.504;11.548;2023-08-30T23:55:10;4.03;;;2.00;;
